Time;durP1;ratioP1;P1;durP2;ratioP2;P2;SDS_P1;SDS_P2;PMS_P1;PMS_P2;Temp;Humidity;BMP_temperature;BMP_pressure;BME280_temperature;BME280_humidity;BME280_pressure;Samples;Min_cycle;Max_cycle;Signal;HPM_P1;HPM_P2
2023/11/05 00:01:01;;;;;;;2.00;0.75;;;;;;;;;;5054868;28;20528;-83
2023/11/05 00:03:28;;;;;;;1.38;0.52;;;;;;;;;;5054867;28;20530;-84
2023/11/05 00:05:53;;;;;;;4.95;1.02;;;;;;;;;;5072941;28;20511;-83
2023/11/05 00:08:18;;;;;;;5.47;0.80;;;;;;;;;;5072695;28;20017;-83
2023/11/05 00:10:44;;;;;;;7.38;1.17;;;;;;;;;;5054815;28;20031;-84
2023/11/05 00:13:09;;;;;;;4.82;1.13;;;;;;;;;;5054965;28;20074;-83
2023/11/05 00:15:34;;;;;;;3.50;0.73;;;;;;;;;;5053764;28;20016;-83
2023/11/05 00:17:59;;;;;;;6.47;1.07;;;;;;;;;;5054869;28;20264;-83
2023/11/05 00:20:25;;;;;;;4.38;0.98;;;;;;;;;;5071573;28;20265;-83
2023/11/05 00:22:50;;;;;;;4.27;0.80;;;;;;;;;;5059250;28;20024;-83
2023/11/05 00:25:15;;;;;;;3.90;0.83;;;;;;;;;;5077091;28;20295;-82
2023/11/05 00:27:40;;;;;;;3.35;1.05;;;;;;;;;;5058812;28;20036;-83
2023/11/05 00:30:06;;;;;;;2.42;0.63;;;;;;;;;;5058565;28;20031;-83
2023/11/05 00:32:31;;;;;;;2.88;0.85;;;;;;;;;;5076588;28;20044;-83
2023/11/05 00:34:57;;;;;;;4.53;0.70;;;;;;;;;;5075566;28;20099;-83
2023/11/05 00:37:22;;;;;;;2.80;0.70;;;;;;;;;;5058440;28;20078;-83
2023/11/05 00:39:48;;;;;;;7.20;1.10;;;;;;;;;;5058645;28;20021;-83
2023/11/05 00:42:13;;;;;;;3.53;0.80;;;;;;;;;;5058656;28;20253;-83
2023/11/05 00:44:38;;;;;;;3.70;0.90;;;;;;;;;;5041911;28;20261;-83
2023/11/05 00:47:03;;;;;;;4.18;0.90;;;;;;;;;;5058559;28;20303;-83
2023/11/05 00:49:29;;;;;;;8.43;1.23;;;;;;;;;;5058545;28;20111;-83
2023/11/05 00:51:54;;;;;;;2.90;0.93;;;;;;;;;;5067034;28;20336;-83
2023/11/05 00:54:19;;;;;;;7.03;1.33;;;;;;;;;;5076495;28;20086;-83
2023/11/05 00:56:44;;;;;;;3.50;1.10;;;;;;;;;;5058103;28;20692;-83
2023/11/05 00:59:09;;;;;;;6.07;1.00;;;;;;;;;;5058239;28;20024;-82
2023/11/05 01:01:35;;;;;;;7.10;1.10;;;;;;;;;;5076241;28;20741;-83
2023/11/05 01:04:00;;;;;;;5.70;1.60;;;;;;;;;;5058106;28;20621;-83
2023/11/05 01:06:25;;;;;;;3.65;0.80;;;;;;;;;;5058301;28;20756;-83
2023/11/05 01:08:50;;;;;;;2.90;0.77;;;;;;;;;;5074946;28;20495;-83
2023/11/05 01:11:16;;;;;;;3.53;0.73;;;;;;;;;;5057969;28;20260;-84
2023/11/05 01:13:41;;;;;;;2.77;0.80;;;;;;;;;;5057978;28;20265;-83
2023/11/05 01:16:06;;;;;;;4.13;1.10;;;;;;;;;;5057584;28;20281;-84
2023/11/05 01:18:32;;;;;;;3.08;1.08;;;;;;;;;;5075904;28;20268;-83
2023/11/05 01:20:57;;;;;;;9.32;1.00;;;;;;;;;;5057914;28;20074;-83
2023/11/05 01:23:22;;;;;;;3.70;0.90;;;;;;;;;;5056315;28;20017;-84
2023/11/05 01:25:47;;;;;;;4.97;0.90;;;;;;;;;;5057829;28;20261;-83
2023/11/05 01:28:13;;;;;;;3.30;0.90;;;;;;;;;;5057655;28;20472;-83
2023/11/05 01:30:38;;;;;;;0.67;0.57;;;;;;;;;;5057472;28;20024;-83
2023/11/05 01:33:03;;;;;;;8.90;1.60;;;;;;;;;;5056597;28;20307;-83
2023/11/05 01:35:28;;;;;;;6.60;0.77;;;;;;;;;;5057276;28;20247;-84
2023/11/05 01:37:53;;;;;;;4.40;0.80;;;;;;;;;;5057602;28;20503;-83
2023/11/05 01:40:19;;;;;;;2.13;0.90;;;;;;;;;;5056223;28;20012;-83
2023/11/05 01:42:44;;;;;;;6.50;1.20;;;;;;;;;;5075119;28;20322;-83
2023/11/05 01:45:09;;;;;;;6.50;1.17;;;;;;;;;;5057529;28;20782;-83
2023/11/05 01:47:35;;;;;;;8.55;1.30;;;;;;;;;;5057285;28;20779;-83
2023/11/05 01:50:00;;;;;;;6.60;1.45;;;;;;;;;;5075378;28;20487;-83
2023/11/05 01:52:26;;;;;;;5.50;1.00;;;;;;;;;;5057282;28;20031;-83
2023/11/05 01:54:53;;;;;;;3.90;1.00;;;;;;;;;;5056986;28;20024;-83
2023/11/05 01:57:18;;;;;;;2.13;0.85;;;;;;;;;;5050608;28;20105;-83
2023/11/05 01:59:43;;;;;;;8.45;1.52;;;;;;;;;;5055954;28;20055;-83
2023/11/05 02:02:09;;;;;;;6.65;1.55;;;;;;;;;;5057009;28;20508;-83
2023/11/05 02:04:35;;;;;;;6.72;1.00;;;;;;;;;;5057115;28;20017;-83
2023/11/05 02:07:00;;;;;;;5.82;1.23;;;;;;;;;;5057115;28;20024;-82
2023/11/05 02:09:25;;;;;;;6.05;1.23;;;;;;;;;;5056842;28;20048;-83
2023/11/05 02:11:50;;;;;;;3.90;0.93;;;;;;;;;;5056962;28;20435;-83
2023/11/05 02:14:16;;;;;;;7.18;0.93;;;;;;;;;;5056758;28;20258;-83
2023/11/05 02:16:41;;;;;;;4.60;1.40;;;;;;;;;;5055902;28;20052;-83
2023/11/05 02:19:06;;;;;;;8.82;1.23;;;;;;;;;;5075002;28;20031;-83
2023/11/05 02:21:34;;;;;;;5.60;1.10;;;;;;;;;;5075086;28;20016;-83
2023/11/05 02:24:00;;;;;;;12.32;1.80;;;;;;;;;;5056495;28;20368;-83
2023/11/05 02:26:25;;;;;;;4.18;0.98;;;;;;;;;;5056379;28;20054;-83
2023/11/05 02:28:50;;;;;;;4.47;1.15;;;;;;;;;;5056660;28;20529;-83
2023/11/05 02:31:15;;;;;;;3.78;1.10;;;;;;;;;;5056722;28;20016;-83
2023/11/05 02:33:42;;;;;;;3.30;1.20;;;;;;;;;;5055164;28;20028;-83
2023/11/05 02:36:07;;;;;;;7.72;1.20;;;;;;;;;;5074577;28;20273;-83
2023/11/05 02:38:33;;;;;;;5.53;1.00;;;;;;;;;;5074426;28;20138;-83
2023/11/05 02:40:58;;;;;;;3.30;1.10;;;;;;;;;;5074415;28;20482;-83
2023/11/05 02:43:24;;;;;;;10.85;1.55;;;;;;;;;;5073945;28;20350;-82
2023/11/05 02:45:49;;;;;;;8.10;1.63;;;;;;;;;;5056323;28;20107;-83
2023/11/05 02:48:14;;;;;;;11.70;1.47;;;;;;;;;;5056255;28;20810;-83
2023/11/05 02:50:39;;;;;;;12.53;2.57;;;;;;;;;;5072882;28;20315;-83
2023/11/05 02:53:05;;;;;;;14.40;1.30;;;;;;;;;;5074073;28;20279;-83
2023/11/05 02:55:30;;;;;;;5.13;1.10;;;;;;;;;;5073928;28;20380;-83
2023/11/05 02:57:55;;;;;;;10.75;1.25;;;;;;;;;;5073894;28;20017;-83
2023/11/05 03:00:23;;;;;;;5.40;1.10;;;;;;;;;;5056023;28;20020;-83
2023/11/05 03:02:49;;;;;;;10.43;1.50;;;;;;;;;;5073750;28;20663;-83
2023/11/05 03:05:14;;;;;;;7.53;1.30;;;;;;;;;;5073799;28;20027;-83
2023/11/05 03:07:39;;;;;;;9.53;1.60;;;;;;;;;;5054630;28;20326;-83
2023/11/05 03:10:05;;;;;;;12.03;1.50;;;;;;;;;;5055200;28;20293;-83
2023/11/05 03:12:30;;;;;;;12.73;1.65;;;;;;;;;;5055575;28;20602;-83
2023/11/05 03:14:55;;;;;;;12.07;1.70;;;;;;;;;;5055779;28;20499;-83
2023/11/05 03:17:20;;;;;;;4.70;1.23;;;;;;;;;;5073659;28;20039;-83
2023/11/05 03:19:46;;;;;;;7.87;1.47;;;;;;;;;;5055684;28;20253;-82
2023/11/05 03:22:12;;;;;;;5.13;1.03;;;;;;;;;;5071994;28;20021;-83
2023/11/05 03:24:38;;;;;;;9.98;1.73;;;;;;;;;;5055471;28;20035;-83
2023/11/05 03:27:04;;;;;;;11.38;1.42;;;;;;;;;;5073547;28;20047;-83
2023/11/05 03:29:29;;;;;;;12.68;1.70;;;;;;;;;;5055276;28;20029;-83
2023/11/05 03:31:55;;;;;;;5.60;0.90;;;;;;;;;;5055402;28;20017;-83
2023/11/05 03:34:20;;;;;;;8.13;0.93;;;;;;;;;;5055366;28;20066;-83
2023/11/05 03:36:45;;;;;;;6.72;1.00;;;;;;;;;;5055143;28;20032;-83
2023/11/05 03:39:11;;;;;;;9.07;1.48;;;;;;;;;;5072134;28;20020;-83
2023/11/05 03:41:36;;;;;;;7.93;1.70;;;;;;;;;;5073214;28;20020;-83
2023/11/05 03:44:01;;;;;;;9.53;1.17;;;;;;;;;;5055185;28;20246;-83
2023/11/05 03:46:26;;;;;;;8.87;0.90;;;;;;;;;;5055240;28;20253;-83
2023/11/05 03:48:51;;;;;;;7.90;1.20;;;;;;;;;;5054945;28;20261;-83
2023/11/05 03:51:17;;;;;;;5.07;1.05;;;;;;;;;;5055206;28;20253;-83
2023/11/05 03:53:43;;;;;;;5.50;1.42;;;;;;;;;;5055171;28;20400;-83
2023/11/05 03:56:08;;;;;;;8.15;1.52;;;;;;;;;;5053311;28;20404;-82
2023/11/05 03:58:34;;;;;;;12.27;1.83;;;;;;;;;;5055030;28;20012;-83
2023/11/05 04:00:59;;;;;;;7.90;1.02;;;;;;;;;;5054935;28;20035;-83
2023/11/05 04:03:24;;;;;;;6.60;0.87;;;;;;;;;;5054865;28;20036;-83
2023/11/05 04:05:53;;;;;;;2.90;0.77;;;;;;;;;;5055084;28;20277;-84
2023/11/05 04:08:19;;;;;;;7.50;0.88;;;;;;;;;;5072823;28;20733;-83
2023/11/05 04:10:44;;;;;;;4.30;0.90;;;;;;;;;;5054888;28;20019;-84
2023/11/05 04:13:09;;;;;;;2.80;0.80;;;;;;;;;;5071737;28;20287;-83
2023/11/05 04:15:34;;;;;;;6.77;1.00;;;;;;;;;;5054623;28;20031;-84
2023/11/05 04:18:00;;;;;;;4.28;0.80;;;;;;;;;;5054763;28;20020;-83
2023/11/05 04:20:25;;;;;;;2.87;0.80;;;;;;;;;;5054870;28;20017;-83
2023/11/05 04:22:50;;;;;;;7.43;1.20;;;;;;;;;;5054606;28;20276;-83
2023/11/05 04:25:15;;;;;;;6.67;1.13;;;;;;;;;;5054658;28;20280;-83
2023/11/05 04:27:40;;;;;;;4.68;0.80;;;;;;;;;;5054769;28;20261;-83
2023/11/05 04:30:06;;;;;;;15.80;1.30;;;;;;;;;;5053266;28;20116;-83
2023/11/05 04:32:31;;;;;;;8.88;0.98;;;;;;;;;;5072597;28;20028;-83
2023/11/05 04:34:56;;;;;;;2.03;0.70;;;;;;;;;;5054511;28;20024;-83
2023/11/05 04:37:22;;;;;;;5.67;0.97;;;;;;;;;;5054479;28;20071;-83
2023/11/05 04:39:47;;;;;;;3.07;0.50;;;;;;;;;;5072773;28;20253;-83
2023/11/05 04:42:12;;;;;;;1.97;0.67;;;;;;;;;;5054438;28;20253;-83
2023/11/05 04:44:37;;;;;;;4.03;0.80;;;;;;;;;;5053518;28;20265;-83
2023/11/05 04:47:03;;;;;;;3.60;0.63;;;;;;;;;;5054287;28;20667;-83
2023/11/05 04:49:29;;;;;;;2.25;0.47;;;;;;;;;;5054399;28;20842;-83
2023/11/05 04:51:54;;;;;;;6.78;0.85;;;;;;;;;;5054533;28;20024;-83
2023/11/05 04:54:19;;;;;;;5.60;0.90;;;;;;;;;;5072350;28;20104;-83
2023/11/05 04:56:44;;;;;;;2.72;0.47;;;;;;;;;;5054269;28;20697;-83
2023/11/05 04:59:10;;;;;;;3.38;0.80;;;;;;;;;;5053378;28;20024;-83
2023/11/05 05:01:35;;;;;;;4.87;0.80;;;;;;;;;;5053280;28;20107;-83
2023/11/05 05:04:00;;;;;;;2.37;0.70;;;;;;;;;;5072343;28;20301;-82
2023/11/05 05:06:25;;;;;;;5.77;0.60;;;;;;;;;;5054444;28;20300;-83
2023/11/05 05:08:51;;;;;;;3.10;0.90;;;;;;;;;;5039879;28;20297;-83
2023/11/05 05:11:16;;;;;;;4.93;0.95;;;;;;;;;;5058423;28;20288;-83
2023/11/05 05:13:42;;;;;;;3.88;0.90;;;;;;;;;;5058054;28;20119;-83
2023/11/05 05:16:11;;;;;;;1.70;0.68;;;;;;;;;;5057853;28;20426;-83
2023/11/05 05:18:37;;;;;;;5.13;0.60;;;;;;;;;;5056601;28;20461;-83
2023/11/05 05:21:02;;;;;;;5.53;0.70;;;;;;;;;;5057811;28;20024;-84
2023/11/05 05:23:27;;;;;;;5.30;0.90;;;;;;;;;;5075708;28;20016;-83
2023/11/05 05:25:53;;;;;;;4.27;0.87;;;;;;;;;;5075797;28;20070;-83
2023/11/05 05:28:18;;;;;;;3.55;0.65;;;;;;;;;;5057430;28;20674;-83
2023/11/05 05:30:43;;;;;;;5.03;0.73;;;;;;;;;;5075710;28;20062;-83
2023/11/05 05:33:08;;;;;;;4.72;0.82;;;;;;;;;;5075523;28;20260;-83
2023/11/05 05:35:34;;;;;;;6.83;0.60;;;;;;;;;;5056686;28;20016;-83
2023/11/05 05:38:00;;;;;;;1.92;0.38;;;;;;;;;;5075139;28;20335;-83
2023/11/05 05:40:25;;;;;;;2.00;0.50;;;;;;;;;;5057547;28;20020;-82
2023/11/05 05:42:50;;;;;;;4.27;0.70;;;;;;;;;;5075453;28;20249;-83
2023/11/05 05:45:15;;;;;;;1.55;0.40;;;;;;;;;;5075366;28;20340;-83
2023/11/05 05:47:41;;;;;;;2.58;0.40;;;;;;;;;;5075446;28;20028;-83
2023/11/05 05:50:06;;;;;;;5.40;0.53;;;;;;;;;;5057508;28;20542;-83
2023/11/05 05:52:32;;;;;;;0.10;0.10;;;;;;;;;;5056100;28;20629;-83
2023/11/05 05:54:57;;;;;;;3.33;0.43;;;;;;;;;;5057236;28;20036;-83
2023/11/05 05:57:24;;;;;;;3.03;0.45;;;;;;;;;;5075114;28;20272;-83
2023/11/05 05:59:51;;;;;;;2.47;0.40;;;;;;;;;;5057179;28;20429;-83
2023/11/05 06:02:17;;;;;;;2.00;0.30;;;;;;;;;;5057097;28;20016;-83
2023/11/05 06:04:42;;;;;;;1.50;0.47;;;;;;;;;;5057070;28;20017;-83
2023/11/05 06:07:08;;;;;;;3.37;0.40;;;;;;;;;;5056846;28;20259;-83
2023/11/05 06:09:33;;;;;;;3.95;0.40;;;;;;;;;;5054814;28;20261;-83
2023/11/05 06:11:59;;;;;;;1.55;0.40;;;;;;;;;;5073735;28;20031;-83
2023/11/05 06:14:24;;;;;;;0.43;0.20;;;;;;;;;;5074842;28;20028;-82
2023/11/05 06:16:49;;;;;;;0.22;0.13;;;;;;;;;;5056879;28;20020;-82
2023/11/05 06:19:15;;;;;;;1.63;0.30;;;;;;;;;;5056196;28;20020;-83
2023/11/05 06:21:43;;;;;;;1.13;0.22;;;;;;;;;;5057013;28;20490;-83
2023/11/05 06:24:09;;;;;;;1.65;0.30;;;;;;;;;;5053301;28;20037;-83
2023/11/05 06:26:34;;;;;;;0.38;0.20;;;;;;;;;;5054748;28;20028;-83
2023/11/05 06:28:59;;;;;;;0.10;0.10;;;;;;;;;;5053586;28;20388;-83
2023/11/05 06:31:24;;;;;;;1.10;0.67;;;;;;;;;;5053181;28;20106;-83
2023/11/05 06:33:50;;;;;;;1.93;0.37;;;;;;;;;;5053232;28;20336;-83
2023/11/05 06:36:15;;;;;;;0.60;0.27;;;;;;;;;;5053229;28;20378;-83
2023/11/05 06:38:41;;;;;;;1.33;0.20;;;;;;;;;;5053005;28;20039;-83
2023/11/05 06:41:06;;;;;;;1.07;0.60;;;;;;;;;;5053191;28;20411;-83
2023/11/05 06:43:31;;;;;;;1.63;0.30;;;;;;;;;;5051658;28;20843;-83
2023/11/05 06:45:56;;;;;;;1.47;0.20;;;;;;;;;;5054189;28;20029;-83
2023/11/05 06:48:22;;;;;;;2.40;0.27;;;;;;;;;;5052938;28;20268;-83
2023/11/05 06:50:47;;;;;;;1.60;0.45;;;;;;;;;;5052971;28;20260;-82
2023/11/05 06:53:13;;;;;;;1.97;0.47;;;;;;;;;;5052970;28;20017;-83
2023/11/05 06:55:38;;;;;;;0.32;0.20;;;;;;;;;;5052676;28;20266;-83
2023/11/05 06:58:04;;;;;;;0.20;0.20;;;;;;;;;;5054096;28;20051;-83
2023/11/05 07:00:30;;;;;;;0.85;0.40;;;;;;;;;;5050000;28;20016;-83
2023/11/05 07:02:55;;;;;;;1.60;0.32;;;;;;;;;;5066972;28;20070;-83
2023/11/05 07:05:21;;;;;;;4.20;0.68;;;;;;;;;;5053839;28;20465;-83
2023/11/05 07:07:46;;;;;;;3.70;0.30;;;;;;;;;;5054177;28;20017;-83
2023/11/05 07:10:11;;;;;;;1.13;0.40;;;;;;;;;;5054142;28;20257;-82
2023/11/05 07:12:41;;;;;;;6.07;0.50;;;;;;;;;;5052622;28;20102;-83
2023/11/05 07:15:06;;;;;;;2.80;0.60;;;;;;;;;;5052303;28;20264;-83
2023/11/05 07:17:32;;;;;;;0.57;0.30;;;;;;;;;;5052764;28;20025;-83
2023/11/05 07:19:57;;;;;;;1.00;0.33;;;;;;;;;;5048348;28;20132;-83
2023/11/05 07:22:22;;;;;;;1.83;0.28;;;;;;;;;;5032702;28;20474;-83
2023/11/05 07:24:47;;;;;;;1.42;0.30;;;;;;;;;;5032631;28;20041;-83
2023/11/05 07:27:12;;;;;;;0.70;0.40;;;;;;;;;;5049332;28;20027;-83
2023/11/05 07:29:38;;;;;;;2.00;0.50;;;;;;;;;;5049248;28;20366;-82
2023/11/05 07:32:03;;;;;;;2.13;0.45;;;;;;;;;;5048673;28;20261;-83
2023/11/05 07:34:28;;;;;;;0.22;0.20;;;;;;;;;;5051575;28;20043;-82
2023/11/05 07:36:54;;;;;;;3.42;0.43;;;;;;;;;;5052150;28;20036;-83
2023/11/05 07:39:19;;;;;;;1.45;0.30;;;;;;;;;;5050757;28;20100;-83
2023/11/05 07:41:44;;;;;;;1.08;0.38;;;;;;;;;;5040605;28;20017;-83
2023/11/05 07:44:10;;;;;;;2.15;0.50;;;;;;;;;;5052247;28;20024;-83
2023/11/05 07:46:35;;;;;;;1.05;0.30;;;;;;;;;;5053517;28;20115;-82
2023/11/05 07:49:01;;;;;;;2.60;0.33;;;;;;;;;;5060808;28;20035;-83
2023/11/05 07:51:26;;;;;;;0.15;0.13;;;;;;;;;;5057239;28;20730;-83
2023/11/05 07:53:52;;;;;;;1.00;0.40;;;;;;;;;;5052278;28;20507;-83
2023/11/05 07:56:18;;;;;;;0.82;0.20;;;;;;;;;;5051096;28;20041;-83
2023/11/05 07:58:44;;;;;;;0.28;0.25;;;;;;;;;;5051722;28;20503;-83
2023/11/05 08:01:09;;;;;;;0.55;0.20;;;;;;;;;;5052726;28;20048;-83
2023/11/05 08:03:35;;;;;;;1.60;0.40;;;;;;;;;;5051367;28;20056;-83
2023/11/05 08:06:00;;;;;;;0.20;0.20;;;;;;;;;;5051236;28;20295;-83
2023/11/05 08:08:27;;;;;;;0.63;0.30;;;;;;;;;;5050936;28;20271;-84
2023/11/05 08:10:52;;;;;;;3.75;0.40;;;;;;;;;;5051101;28;20288;-84
2023/11/05 08:13:17;;;;;;;3.13;0.57;;;;;;;;;;5051613;28;20499;-86
2023/11/05 08:15:43;;;;;;;2.10;0.57;;;;;;;;;;5052847;28;20473;-88
2023/11/05 08:18:09;;;;;;;2.90;0.57;;;;;;;;;;5051637;28;20289;-88
2023/11/05 08:20:34;;;;;;;1.75;0.40;;;;;;;;;;5051377;28;20014;-88
2023/11/05 08:22:59;;;;;;;4.40;0.50;;;;;;;;;;5052449;28;20013;-87
2023/11/05 08:25:24;;;;;;;5.23;0.70;;;;;;;;;;5039587;28;20286;-84
2023/11/05 08:27:50;;;;;;;1.50;0.50;;;;;;;;;;5040536;28;20025;-83
2023/11/05 08:30:16;;;;;;;2.00;0.63;;;;;;;;;;5050642;28;20262;-82
2023/11/05 08:32:42;;;;;;;6.75;0.93;;;;;;;;;;5052618;28;20049;-84
2023/11/05 08:35:08;;;;;;;4.43;0.57;;;;;;;;;;5051575;28;20066;-84
2023/11/05 08:37:35;;;;;;;2.25;0.28;;;;;;;;;;5048270;28;20070;-87
2023/11/05 08:40:00;;;;;;;3.17;0.50;;;;;;;;;;5051002;28;20025;-87
2023/11/05 08:42:26;;;;;;;2.85;0.45;;;;;;;;;;5054128;28;20093;-86
2023/11/05 08:44:51;;;;;;;2.17;0.38;;;;;;;;;;5056157;28;20021;-86
2023/11/05 08:47:17;;;;;;;1.05;0.30;;;;;;;;;;5056128;28;20028;-86
2023/11/05 08:49:42;;;;;;;1.00;0.27;;;;;;;;;;5055364;28;20131;-86
2023/11/05 08:52:07;;;;;;;1.73;0.40;;;;;;;;;;5054990;28;20029;-86
2023/11/05 08:54:33;;;;;;;3.07;0.53;;;;;;;;;;5055027;28;20062;-86
2023/11/05 08:56:58;;;;;;;5.25;0.60;;;;;;;;;;5054877;28;20419;-86
2023/11/05 08:59:25;;;;;;;3.00;0.60;;;;;;;;;;5055098;28;20013;-86
2023/11/05 09:01:51;;;;;;;4.15;0.77;;;;;;;;;;5054374;28;20258;-86
2023/11/05 09:04:16;;;;;;;4.17;0.67;;;;;;;;;;5056006;28;20388;-86
2023/11/05 09:06:44;;;;;;;2.07;0.60;;;;;;;;;;5054569;28;20753;-86
2023/11/05 09:09:11;;;;;;;2.92;0.52;;;;;;;;;;5032770;28;20033;-86
2023/11/05 09:11:36;;;;;;;3.22;0.73;;;;;;;;;;5054501;28;20473;-86
2023/11/05 09:14:02;;;;;;;1.45;0.60;;;;;;;;;;5054814;28;20017;-85
2023/11/05 09:16:27;;;;;;;1.48;0.68;;;;;;;;;;5054479;28;20098;-85
2023/11/05 09:18:52;;;;;;;2.83;0.87;;;;;;;;;;5055761;28;20025;-85
2023/11/05 09:21:18;;;;;;;3.23;0.40;;;;;;;;;;5054731;28;20265;-86
2023/11/05 09:23:43;;;;;;;5.57;0.80;;;;;;;;;;5059523;28;20285;-86
2023/11/05 09:26:08;;;;;;;1.53;0.60;;;;;;;;;;5057692;28;20048;-86
2023/11/05 09:28:33;;;;;;;1.00;0.60;;;;;;;;;;5057892;28;20254;-86
2023/11/05 09:30:59;;;;;;;4.67;1.00;;;;;;;;;;5057802;28;20388;-86
2023/11/05 09:33:25;;;;;;;2.20;0.52;;;;;;;;;;5057212;28;20773;-86
2023/11/05 09:35:50;;;;;;;2.60;0.55;;;;;;;;;;5057233;28;20111;-86
2023/11/05 09:38:17;;;;;;;3.38;0.55;;;;;;;;;;5057412;28;20031;-86
2023/11/05 09:40:42;;;;;;;2.50;0.73;;;;;;;;;;5075667;28;20021;-86
2023/11/05 09:43:09;;;;;;;1.53;0.83;;;;;;;;;;5057039;28;20013;-86
2023/11/05 09:45:35;;;;;;;3.17;1.17;;;;;;;;;;5057314;28;20633;-86
2023/11/05 09:48:05;;;;;;;4.85;1.35;;;;;;;;;;5057181;28;20112;-86
2023/11/05 09:50:32;;;;;;;5.88;1.50;;;;;;;;;;5057406;28;20104;-86
2023/11/05 09:53:04;;;;;;;5.57;1.30;;;;;;;;;;5056511;28;20028;-85
2023/11/05 09:55:30;;;;;;;1.35;0.82;;;;;;;;;;5056920;28;20054;-86
2023/11/05 09:57:56;;;;;;;6.82;1.30;;;;;;;;;;5054172;28;20020;-85
2023/11/05 10:00:22;;;;;;;2.92;0.75;;;;;;;;;;5091968;28;20543;-85
2023/11/05 10:02:59;;;;;;;5.72;0.90;;;;;;;;;;5057244;28;20107;-86
2023/11/05 10:05:26;;;;;;;4.25;0.90;;;;;;;;;;5075293;28;20028;-85
2023/11/05 10:07:51;;;;;;;3.75;0.82;;;;;;;;;;5056815;28;20023;-85
2023/11/05 10:10:17;;;;;;;1.50;0.60;;;;;;;;;;5057039;28;20032;-85
2023/11/05 10:12:42;;;;;;;2.25;0.95;;;;;;;;;;5057044;28;20376;-86
2023/11/05 10:15:08;;;;;;;5.75;0.90;;;;;;;;;;5057119;28;20028;-86
2023/11/05 10:17:33;;;;;;;3.22;0.85;;;;;;;;;;5054748;28;20552;-86
2023/11/05 10:19:58;;;;;;;3.22;0.90;;;;;;;;;;5074511;28;20494;-86
2023/11/05 10:22:24;;;;;;;3.10;1.00;;;;;;;;;;5056211;28;20025;-85
2023/11/05 10:24:51;;;;;;;2.75;0.47;;;;;;;;;;5054344;28;20044;-86
2023/11/05 10:27:30;;;;;;;3.67;0.85;;;;;;;;;;5059811;28;20048;-86
2023/11/05 10:29:55;;;;;;;4.88;0.82;;;;;;;;;;5053331;28;20028;-85
2023/11/05 10:32:22;;;;;;;4.55;0.85;;;;;;;;;;5072438;28;20032;-85
2023/11/05 10:34:49;;;;;;;2.30;0.77;;;;;;;;;;5073052;28;20430;-85
2023/11/05 10:37:15;;;;;;;2.92;0.68;;;;;;;;;;5054512;28;20021;-85
2023/11/05 10:39:40;;;;;;;4.75;1.15;;;;;;;;;;5055722;28;20073;-86
2023/11/05 10:42:07;;;;;;;0.90;0.35;;;;;;;;;;5055145;28;20054;-85
2023/11/05 10:44:33;;;;;;;1.23;0.55;;;;;;;;;;5048889;28;20013;-86
2023/11/05 10:46:59;;;;;;;2.45;0.90;;;;;;;;;;5074452;28;20020;-86
2023/11/05 10:49:24;;;;;;;5.97;1.15;;;;;;;;;;5074621;28;20100;-86
2023/11/05 10:51:50;;;;;;;2.85;0.38;;;;;;;;;;5052944;28;20425;-85
2023/11/05 10:54:16;;;;;;;1.27;0.32;;;;;;;;;;5054896;28;20078;-86
2023/11/05 10:56:43;;;;;;;1.48;0.47;;;;;;;;;;5048665;28;20024;-85
2023/11/05 10:59:09;;;;;;;2.72;0.80;;;;;;;;;;5053669;28;20038;-85
2023/11/05 11:01:35;;;;;;;3.45;0.57;;;;;;;;;;5067832;28;20074;-86
2023/11/05 11:04:11;;;;;;;2.20;0.60;;;;;;;;;;5055136;28;20027;-86
2023/11/05 11:06:39;;;;;;;3.08;0.38;;;;;;;;;;5072874;28;20020;-86
2023/11/05 11:09:19;;;;;;;3.60;0.70;;;;;;;;;;5052690;28;20044;-86
2023/11/05 11:11:45;;;;;;;3.05;0.32;;;;;;;;;;5043384;28;20135;-86
2023/11/05 11:14:10;;;;;;;0.93;0.32;;;;;;;;;;5054869;28;20587;-86
2023/11/05 11:16:36;;;;;;;1.17;0.30;;;;;;;;;;5055946;28;20020;-86
2023/11/05 11:19:12;;;;;;;3.63;0.60;;;;;;;;;;5054839;28;20095;-86
2023/11/05 11:21:58;;;;;;;4.40;0.73;;;;;;;;;;5053649;28;20074;-86
2023/11/05 11:24:27;;;;;;;2.55;0.60;;;;;;;;;;5070130;28;20051;-86
2023/11/05 11:26:53;;;;;;;4.38;0.60;;;;;;;;;;5054834;28;20534;-86
2023/11/05 11:29:19;;;;;;;4.45;0.52;;;;;;;;;;5052622;28;20024;-86
2023/11/05 11:31:44;;;;;;;3.47;0.55;;;;;;;;;;5072898;28;20020;-87
2023/11/05 11:34:10;;;;;;;7.72;0.73;;;;;;;;;;5054990;28;20085;-85
2023/11/05 11:36:35;;;;;;;3.87;0.50;;;;;;;;;;5053858;28;20029;-85
2023/11/05 11:39:00;;;;;;;1.90;0.50;;;;;;;;;;5054502;28;20303;-85
2023/11/05 11:41:32;;;;;;;2.00;0.50;;;;;;;;;;5053501;28;20028;-85
2023/11/05 11:43:57;;;;;;;;;;;;;;;;;;5054169;28;20250;-84
2023/11/05 11:46:23;;;;;;;2.97;1.00;;;;;;;;;;5049980;28;19935;-85
2023/11/05 11:48:48;;;;;;;2.63;0.38;;;;;;;;;;5052046;28;20052;-85
2023/11/05 11:51:14;;;;;;;3.58;0.70;;;;;;;;;;5053366;28;20492;-85
2023/11/05 11:53:40;;;;;;;1.30;0.50;;;;;;;;;;5053381;28;20051;-85
2023/11/05 11:56:05;;;;;;;1.98;0.32;;;;;;;;;;5052067;28;20017;-85
2023/11/05 11:58:35;;;;;;;1.70;0.40;;;;;;;;;;5052148;28;20021;-85
2023/11/05 12:01:00;;;;;;;1.20;0.50;;;;;;;;;;5054793;28;20031;-85
2023/11/05 12:03:29;;;;;;;2.75;0.63;;;;;;;;;;5073418;28;20024;-84
2023/11/05 12:05:54;;;;;;;1.65;0.50;;;;;;;;;;5055316;28;20020;-85
2023/11/05 12:08:35;;;;;;;0.82;0.30;;;;;;;;;;5055395;28;20015;-85
2023/11/05 12:11:02;;;;;;;3.38;0.82;;;;;;;;;;5055334;28;20419;-85
2023/11/05 12:13:29;;;;;;;2.20;0.70;;;;;;;;;;5073235;28;20055;-85
2023/11/05 12:15:55;;;;;;;0.68;0.40;;;;;;;;;;5073290;28;20419;-85
2023/11/05 12:18:20;;;;;;;0.83;0.47;;;;;;;;;;5053639;28;20016;-85
2023/11/05 12:20:45;;;;;;;2.60;0.50;;;;;;;;;;5073236;28;20275;-85
2023/11/05 12:23:10;;;;;;;2.57;0.57;;;;;;;;;;5055218;28;20288;-85
2023/11/05 12:25:35;;;;;;;3.40;0.97;;;;;;;;;;5072990;28;20350;-85
2023/11/05 12:28:01;;;;;;;6.13;0.90;;;;;;;;;;5073101;28;20252;-85
2023/11/05 12:30:28;;;;;;;4.50;0.60;;;;;;;;;;5055113;28;20266;-84
2023/11/05 12:32:53;;;;;;;1.17;0.30;;;;;;;;;;5055095;28;20732;-84
2023/11/05 12:35:18;;;;;;;2.53;0.73;;;;;;;;;;5071682;28;20031;-85
2023/11/05 12:37:44;;;;;;;3.33;0.60;;;;;;;;;;5072901;28;20265;-85
2023/11/05 12:40:09;;;;;;;0.75;0.40;;;;;;;;;;5055025;28;20017;-85
2023/11/05 12:42:36;;;;;;;2.33;0.45;;;;;;;;;;5072971;28;20476;-85
2023/11/05 12:45:03;;;;;;;3.60;0.50;;;;;;;;;;5054973;28;20507;-85
2023/11/05 12:47:28;;;;;;;1.10;0.40;;;;;;;;;;5054952;28;20530;-85
2023/11/05 12:49:54;;;;;;;2.15;0.40;;;;;;;;;;5072894;28;20024;-85
2023/11/05 12:52:20;;;;;;;4.07;0.73;;;;;;;;;;5071682;28;20028;-85
2023/11/05 12:54:45;;;;;;;1.23;0.47;;;;;;;;;;5054901;28;20323;-85
2023/11/05 12:57:10;;;;;;;6.18;0.55;;;;;;;;;;5054830;28;20510;-85
2023/11/05 12:59:39;;;;;;;2.65;0.75;;;;;;;;;;5054855;28;20032;-85
2023/11/05 13:02:05;;;;;;;1.38;0.50;;;;;;;;;;5054872;28;20016;-85
2023/11/05 13:04:30;;;;;;;2.78;0.70;;;;;;;;;;5055076;28;20105;-85
2023/11/05 13:06:56;;;;;;;2.65;0.55;;;;;;;;;;5054739;28;20480;-85
2023/11/05 13:09:21;;;;;;;4.13;0.80;;;;;;;;;;5071431;28;20028;-85
2023/11/05 13:11:46;;;;;;;2.00;0.47;;;;;;;;;;5054732;28;20107;-85
2023/11/05 13:14:12;;;;;;;4.15;0.60;;;;;;;;;;5050587;28;20111;-84
2023/11/05 13:16:37;;;;;;;1.55;0.65;;;;;;;;;;5050744;28;20025;-85
2023/11/05 13:19:02;;;;;;;1.42;0.45;;;;;;;;;;5051353;28;20354;-85
2023/11/05 13:21:28;;;;;;;0.90;0.43;;;;;;;;;;5052594;28;20097;-84
2023/11/05 13:23:53;;;;;;;0.30;0.30;;;;;;;;;;5052416;28;20041;-84
2023/11/05 13:26:18;;;;;;;0.63;0.37;;;;;;;;;;5051301;28;20036;-84
2023/11/05 13:28:44;;;;;;;2.87;0.43;;;;;;;;;;5035392;28;20307;-84
2023/11/05 13:31:09;;;;;;;1.33;0.50;;;;;;;;;;5053702;28;20266;-85
2023/11/05 13:33:35;;;;;;;0.43;0.20;;;;;;;;;;5038200;28;20032;-84
2023/11/05 13:36:00;;;;;;;2.50;0.43;;;;;;;;;;5054679;28;20044;-84
2023/11/05 13:38:25;;;;;;;0.55;0.55;;;;;;;;;;5038086;28;20435;-84
2023/11/05 13:40:51;;;;;;;0.43;0.37;;;;;;;;;;5055952;28;20047;-84
2023/11/05 13:43:16;;;;;;;0.35;0.30;;;;;;;;;;5055912;28;20332;-84
2023/11/05 13:45:43;;;;;;;2.30;0.50;;;;;;;;;;5056608;28;20464;-84
2023/11/05 13:48:08;;;;;;;1.77;0.40;;;;;;;;;;5075901;28;20013;-85
2023/11/05 13:50:34;;;;;;;0.80;0.40;;;;;;;;;;5057853;28;20032;-85
2023/11/05 13:52:59;;;;;;;0.70;0.55;;;;;;;;;;5057808;28;20541;-84
2023/11/05 13:55:24;;;;;;;2.67;0.50;;;;;;;;;;5057747;28;20027;-84
2023/11/05 13:57:51;;;;;;;1.67;0.38;;;;;;;;;;5075651;28;20031;-84
2023/11/05 14:00:17;;;;;;;0.43;0.40;;;;;;;;;;5057633;28;20021;-84
2023/11/05 14:02:42;;;;;;;3.58;0.63;;;;;;;;;;5073062;28;20027;-85
2023/11/05 14:05:07;;;;;;;2.93;0.60;;;;;;;;;;5053241;28;20111;-85
2023/11/05 14:07:32;;;;;;;1.90;0.43;;;;;;;;;;5051069;28;20308;-85
2023/11/05 14:10:02;;;;;;;0.83;0.40;;;;;;;;;;5053136;28;20028;-87
2023/11/05 14:12:28;;;;;;;8.15;0.57;;;;;;;;;;5057042;28;20250;-86
2023/11/05 14:14:53;;;;;;;0.23;0.23;;;;;;;;;;5068683;28;20503;-87
2023/11/05 14:17:18;;;;;;;2.00;0.60;;;;;;;;;;5073064;28;20832;-87
2023/11/05 14:19:43;;;;;;;1.90;0.57;;;;;;;;;;5073722;28;20021;-86
2023/11/05 14:22:08;;;;;;;3.87;0.60;;;;;;;;;;5055246;28;20069;-87
2023/11/05 14:24:34;;;;;;;3.27;0.50;;;;;;;;;;5072655;28;20290;-87
2023/11/05 14:27:02;;;;;;;1.30;0.40;;;;;;;;;;5055271;28;20269;-87
2023/11/05 14:29:28;;;;;;;3.85;0.68;;;;;;;;;;5072451;28;20526;-87
2023/11/05 14:31:54;;;;;;;1.30;0.80;;;;;;;;;;5070169;28;20024;-87
2023/11/05 14:34:19;;;;;;;0.60;0.52;;;;;;;;;;5073376;28;20376;-87